createdAt,value
2023-01-13T00:02:39.514Z,1.70
2023-01-13T00:12:42.184Z,0.80
2023-01-13T00:22:43.952Z,0.70
2023-01-13T00:32:45.428Z,0.90
2023-01-13T00:43:05.245Z,0.90
2023-01-13T00:53:06.628Z,1.20
2023-01-13T01:03:12.213Z,1.90
2023-01-13T01:13:17.095Z,0.80
2023-01-13T01:23:18.455Z,1.20
2023-01-13T01:33:19.976Z,0.80
2023-01-13T01:43:41.760Z,1.10
2023-01-13T01:53:43.622Z,1.33
2023-01-13T02:03:52.329Z,1.02
2023-01-13T02:13:53.950Z,0.80
2023-01-13T02:24:56.533Z,1.20
2023-01-13T02:35:35.288Z,1.15
2023-01-13T02:45:44.295Z,1.13
2023-01-13T02:55:51.613Z,1.10
2023-01-13T03:06:23.226Z,1.00
2023-01-13T03:16:30.498Z,1.30
2023-01-13T03:26:41.651Z,1.17
2023-01-13T03:36:47.949Z,1.55
2023-01-13T03:47:00.422Z,1.05
2023-01-13T03:57:07.202Z,1.60
2023-01-13T04:07:32.340Z,1.00
2023-01-13T04:17:33.880Z,1.30
2023-01-13T04:27:35.376Z,1.00
2023-01-13T04:37:37.090Z,2.20
2023-01-13T04:47:38.846Z,1.08
2023-01-13T04:57:40.560Z,0.90
2023-01-13T05:07:42.051Z,1.13
2023-01-13T05:17:43.846Z,0.88
2023-01-13T05:27:45.250Z,1.38
2023-01-13T05:37:47.367Z,1.00
2023-01-13T05:47:48.802Z,1.00
2023-01-13T05:57:50.310Z,1.05
2023-01-13T06:07:51.813Z,1.17
2023-01-13T06:17:53.846Z,0.67
2023-01-13T06:27:58.442Z,0.93
2023-01-13T06:38:03.077Z,1.20
2023-01-13T06:48:05.082Z,1.93
2023-01-13T06:58:06.805Z,1.55
2023-01-13T07:08:09.557Z,1.27
2023-01-13T07:18:11.033Z,1.17
2023-01-13T07:28:12.548Z,1.67
2023-01-13T07:38:14.042Z,1.85
2023-01-13T07:48:15.595Z,1.20
2023-01-13T07:58:17.121Z,1.60
2023-01-13T08:08:18.920Z,1.23
2023-01-13T08:18:22.343Z,1.27
2023-01-13T08:28:24.487Z,1.10
2023-01-13T08:38:26.009Z,1.38
2023-01-13T08:48:31.303Z,1.65
2023-01-13T08:58:33.080Z,1.57
2023-01-13T09:08:34.583Z,0.90
2023-01-13T09:18:36.073Z,0.90
2023-01-13T09:28:37.436Z,1.20
2023-01-13T09:38:38.946Z,1.73
2023-01-13T09:48:51.990Z,1.92
2023-01-13T09:58:53.677Z,1.37
2023-01-13T10:08:55.928Z,2.07
2023-01-13T10:19:00.179Z,2.55
2023-01-13T10:29:01.732Z,1.63
2023-01-13T10:39:15.246Z,2.07
2023-01-13T10:49:36.257Z,2.97
2023-01-13T10:59:37.850Z,1.83
2023-01-13T11:09:39.253Z,1.63
2023-01-13T11:19:47.964Z,2.50
2023-01-13T11:29:55.350Z,2.33
2023-01-13T11:40:19.026Z,2.00
2023-01-13T11:50:34.971Z,1.70
2023-01-13T12:01:10.144Z,2.42
2023-01-13T12:11:22.688Z,2.80
2023-01-13T12:21:29.634Z,1.80
2023-01-13T12:31:35.387Z,1.93
2023-01-13T12:42:19.692Z,2.78
2023-01-13T12:52:21.284Z,2.30
2023-01-13T13:02:29.075Z,3.17
2023-01-13T13:12:49.424Z,2.28
2023-01-13T13:22:51.360Z,2.43
2023-01-13T13:33:12.161Z,3.73
2023-01-13T13:43:33.862Z,3.40
2023-01-13T13:53:41.989Z,2.35
2023-01-13T14:03:43.526Z,3.30
2023-01-13T14:13:44.936Z,1.83
2023-01-13T14:23:56.274Z,3.13
2023-01-13T14:34:02.840Z,2.57
2023-01-13T14:44:30.770Z,3.10
2023-01-13T14:54:41.240Z,3.13
2023-01-13T15:04:42.659Z,2.93
2023-01-13T15:14:44.226Z,3.93
2023-01-13T15:24:46.858Z,2.45
2023-01-13T15:34:48.969Z,1.85
2023-01-13T15:45:09.101Z,1.87
2023-01-13T15:55:10.578Z,1.97
2023-01-13T16:05:12.475Z,1.80
2023-01-13T16:15:15.671Z,1.53
2023-01-13T16:25:20.216Z,1.67
2023-01-13T16:35:23.282Z,2.30
2023-01-13T16:45:25.249Z,1.20
2023-01-13T16:55:27.788Z,1.43
2023-01-13T17:05:29.257Z,1.60
2023-01-13T17:15:30.794Z,2.05
2023-01-13T17:25:32.891Z,1.50
2023-01-13T17:35:34.315Z,2.00
2023-01-13T17:45:40.716Z,2.50
2023-01-13T17:55:49.866Z,2.40
2023-01-13T18:05:51.377Z,1.70
2023-01-13T18:16:10.818Z,2.60
2023-01-13T18:26:36.138Z,1.60
2023-01-13T18:36:38.342Z,2.37
2023-01-13T18:46:40.036Z,2.08
2023-01-13T18:56:41.543Z,1.75
2023-01-13T19:06:49.036Z,1.70
2023-01-13T19:16:50.970Z,2.70
2023-01-13T19:26:54.679Z,2.42
2023-01-13T19:36:56.194Z,4.80
2023-01-13T19:46:57.934Z,2.80
2023-01-13T19:56:59.401Z,1.73
2023-01-13T20:07:00.943Z,2.87
2023-01-13T20:17:02.302Z,2.30
2023-01-13T20:27:04.605Z,2.75
2023-01-13T20:37:06.085Z,2.30
2023-01-13T20:47:08.178Z,3.20
2023-01-13T20:57:11.488Z,3.20
2023-01-13T21:07:12.992Z,3.25
2023-01-13T21:17:35.151Z,2.53
2023-01-13T21:27:36.544Z,3.07
2023-01-13T21:37:39.285Z,2.53
2023-01-13T21:47:49.735Z,3.20
2023-01-13T21:57:54.368Z,3.20
2023-01-13T22:07:55.718Z,2.33
2023-01-13T22:17:57.334Z,2.80
2023-01-13T22:28:03.755Z,2.80
2023-01-13T22:38:05.125Z,2.23
2023-01-13T22:48:06.863Z,2.53
2023-01-13T22:58:08.663Z,1.67
2023-01-13T23:08:10.789Z,2.97
2023-01-13T23:18:12.222Z,2.78
2023-01-13T23:28:13.660Z,3.93
2023-01-13T23:38:15.148Z,2.47
2023-01-13T23:48:18.481Z,2.35
2023-01-13T23:58:20.313Z,2.03
